sensor_id;sensor_type;location;lat;lon;timestamp;temperature;humidity
47857;DHT22;33618;49.972;8.242;2023-04-06T00:00:05;4.30;93.40
47857;DHT22;33618;49.972;8.242;2023-04-06T00:02:36;4.40;93.40
47857;DHT22;33618;49.972;8.242;2023-04-06T00:05:04;4.30;93.50
47857;DHT22;33618;49.972;8.242;2023-04-06T00:07:33;4.20;94.10
47857;DHT22;33618;49.972;8.242;2023-04-06T00:10:01;4.20;94.10
47857;DHT22;33618;49.972;8.242;2023-04-06T00:12:29;4.20;94.20
47857;DHT22;33618;49.972;8.242;2023-04-06T00:14:56;4.10;94.50
47857;DHT22;33618;49.972;8.242;2023-04-06T00:17:24;4.10;94.40
47857;DHT22;33618;49.972;8.242;2023-04-06T00:19:52;4.00;94.50
47857;DHT22;33618;49.972;8.242;2023-04-06T00:22:20;3.90;95.00
47857;DHT22;33618;49.972;8.242;2023-04-06T00:24:48;3.90;95.30
47857;DHT22;33618;49.972;8.242;2023-04-06T00:27:15;3.90;95.90
47857;DHT22;33618;49.972;8.242;2023-04-06T00:29:44;3.80;96.40
47857;DHT22;33618;49.972;8.242;2023-04-06T00:32:12;3.70;97.50
47857;DHT22;33618;49.972;8.242;2023-04-06T00:34:40;3.70;97.30
47857;DHT22;33618;49.972;8.242;2023-04-06T00:37:07;3.60;97.60
47857;DHT22;33618;49.972;8.242;2023-04-06T00:39:35;3.60;97.30
47857;DHT22;33618;49.972;8.242;2023-04-06T00:42:12;3.50;97.50
47857;DHT22;33618;49.972;8.242;2023-04-06T01:26:59;2.90;99.90
47857;DHT22;33618;49.972;8.242;2023-04-06T01:29:27;2.90;99.90
47857;DHT22;33618;49.972;8.242;2023-04-06T01:31:54;2.80;99.90
47857;DHT22;33618;49.972;8.242;2023-04-06T01:34:21;2.80;99.90
47857;DHT22;33618;49.972;8.242;2023-04-06T01:36:48;2.70;99.90
47857;DHT22;33618;49.972;8.242;2023-04-06T01:39:15;2.70;99.90
47857;DHT22;33618;49.972;8.242;2023-04-06T01:41:42;2.70;99.90
47857;DHT22;33618;49.972;8.242;2023-04-06T01:44:09;2.70;99.90
47857;DHT22;33618;49.972;8.242;2023-04-06T01:46:37;2.70;99.90
47857;DHT22;33618;49.972;8.242;2023-04-06T01:49:03;2.60;99.90
47857;DHT22;33618;49.972;8.242;2023-04-06T01:51:30;2.60;99.90
47857;DHT22;33618;49.972;8.242;2023-04-06T01:53:57;2.60;99.90
47857;DHT22;33618;49.972;8.242;2023-04-06T01:56:24;2.60;99.90
47857;DHT22;33618;49.972;8.242;2023-04-06T01:58:51;2.50;99.90
47857;DHT22;33618;49.972;8.242;2023-04-06T02:01:18;2.40;99.90
47857;DHT22;33618;49.972;8.242;2023-04-06T02:03:45;2.40;99.90
47857;DHT22;33618;49.972;8.242;2023-04-06T02:06:12;2.50;99.90
47857;DHT22;33618;49.972;8.242;2023-04-06T02:08:38;2.40;99.90
47857;DHT22;33618;49.972;8.242;2023-04-06T02:11:06;2.30;99.90
47857;DHT22;33618;49.972;8.242;2023-04-06T02:13:33;2.20;99.90
47857;DHT22;33618;49.972;8.242;2023-04-06T02:15:59;2.20;99.90
47857;DHT22;33618;49.972;8.242;2023-04-06T02:18:26;2.10;99.90
47857;DHT22;33618;49.972;8.242;2023-04-06T02:20:54;2.10;99.90
47857;DHT22;33618;49.972;8.242;2023-04-06T02:23:22;2.10;99.90
47857;DHT22;33618;49.972;8.242;2023-04-06T02:25:49;2.10;99.90
47857;DHT22;33618;49.972;8.242;2023-04-06T02:28:16;2.00;99.90
47857;DHT22;33618;49.972;8.242;2023-04-06T02:30:42;2.00;99.90
47857;DHT22;33618;49.972;8.242;2023-04-06T02:33:09;1.90;99.90
47857;DHT22;33618;49.972;8.242;2023-04-06T02:35:36;2.00;99.90
47857;DHT22;33618;49.972;8.242;2023-04-06T02:38:03;1.90;99.90
47857;DHT22;33618;49.972;8.242;2023-04-06T02:40:30;1.90;99.90
47857;DHT22;33618;49.972;8.242;2023-04-06T02:42:56;1.80;99.90
47857;DHT22;33618;49.972;8.242;2023-04-06T02:45:23;1.80;99.90
47857;DHT22;33618;49.972;8.242;2023-04-06T02:47:50;1.80;99.90
47857;DHT22;33618;49.972;8.242;2023-04-06T02:50:18;1.80;99.90
47857;DHT22;33618;49.972;8.242;2023-04-06T02:52:44;1.70;99.90
47857;DHT22;33618;49.972;8.242;2023-04-06T02:55:12;1.70;99.90
47857;DHT22;33618;49.972;8.242;2023-04-06T02:57:39;1.70;99.90
47857;DHT22;33618;49.972;8.242;2023-04-06T03:00:06;1.60;99.90
47857;DHT22;33618;49.972;8.242;2023-04-06T03:02:33;1.60;99.90
47857;DHT22;33618;49.972;8.242;2023-04-06T03:05:00;1.70;99.90
47857;DHT22;33618;49.972;8.242;2023-04-06T03:07:28;1.70;99.90
47857;DHT22;33618;49.972;8.242;2023-04-06T03:09:54;1.70;99.90
47857;DHT22;33618;49.972;8.242;2023-04-06T03:12:21;1.60;99.90
47857;DHT22;33618;49.972;8.242;2023-04-06T03:14:48;1.50;99.90
47857;DHT22;33618;49.972;8.242;2023-04-06T03:17:15;1.50;99.90
47857;DHT22;33618;49.972;8.242;2023-04-06T03:19:42;1.50;99.90
47857;DHT22;33618;49.972;8.242;2023-04-06T03:22:09;1.50;99.90
47857;DHT22;33618;49.972;8.242;2023-04-06T03:24:35;1.50;99.90
47857;DHT22;33618;49.972;8.242;2023-04-06T03:27:02;1.50;99.90
47857;DHT22;33618;49.972;8.242;2023-04-06T03:29:29;1.40;99.90
47857;DHT22;33618;49.972;8.242;2023-04-06T03:31:56;1.40;99.90
47857;DHT22;33618;49.972;8.242;2023-04-06T03:34:23;1.40;99.90
47857;DHT22;33618;49.972;8.242;2023-04-06T03:36:50;1.40;99.90
47857;DHT22;33618;49.972;8.242;2023-04-06T03:39:36;1.30;99.90
47857;DHT22;33618;49.972;8.242;2023-04-06T03:42:03;1.30;99.90
47857;DHT22;33618;49.972;8.242;2023-04-06T03:44:30;1.20;99.90
47857;DHT22;33618;49.972;8.242;2023-04-06T03:46:57;1.20;99.90
47857;DHT22;33618;49.972;8.242;2023-04-06T03:49:24;1.10;99.90
47857;DHT22;33618;49.972;8.242;2023-04-06T03:51:52;1.10;99.90
47857;DHT22;33618;49.972;8.242;2023-04-06T03:54:19;1.10;99.90
47857;DHT22;33618;49.972;8.242;2023-04-06T03:56:46;1.10;99.90
47857;DHT22;33618;49.972;8.242;2023-04-06T03:59:13;1.10;99.90
47857;DHT22;33618;49.972;8.242;2023-04-06T04:01:39;1.10;99.90
47857;DHT22;33618;49.972;8.242;2023-04-06T04:04:06;1.00;99.90
47857;DHT22;33618;49.972;8.242;2023-04-06T04:06:33;1.00;99.90
47857;DHT22;33618;49.972;8.242;2023-04-06T04:09:00;1.00;99.90
47857;DHT22;33618;49.972;8.242;2023-04-06T04:11:27;1.00;99.90
47857;DHT22;33618;49.972;8.242;2023-04-06T04:13:54;1.00;99.90
47857;DHT22;33618;49.972;8.242;2023-04-06T04:16:20;0.90;99.90
47857;DHT22;33618;49.972;8.242;2023-04-06T04:18:48;0.90;99.90
47857;DHT22;33618;49.972;8.242;2023-04-06T04:21:15;0.90;99.90
47857;DHT22;33618;49.972;8.242;2023-04-06T04:23:42;0.80;99.90
47857;DHT22;33618;49.972;8.242;2023-04-06T04:26:09;0.90;99.90
47857;DHT22;33618;49.972;8.242;2023-04-06T04:28:35;0.90;99.90
47857;DHT22;33618;49.972;8.242;2023-04-06T04:31:02;0.90;99.90
47857;DHT22;33618;49.972;8.242;2023-04-06T04:33:29;0.90;99.90
47857;DHT22;33618;49.972;8.242;2023-04-06T04:35:56;0.90;99.90
47857;DHT22;33618;49.972;8.242;2023-04-06T04:38:23;0.80;99.90
47857;DHT22;33618;49.972;8.242;2023-04-06T04:40:49;0.80;99.90
47857;DHT22;33618;49.972;8.242;2023-04-06T04:43:16;0.80;99.90
47857;DHT22;33618;49.972;8.242;2023-04-06T04:45:43;0.90;99.90
47857;DHT22;33618;49.972;8.242;2023-04-06T04:48:10;0.80;99.90
47857;DHT22;33618;49.972;8.242;2023-04-06T04:50:37;0.90;99.90
47857;DHT22;33618;49.972;8.242;2023-04-06T04:53:04;0.90;99.90
47857;DHT22;33618;49.972;8.242;2023-04-06T04:55:34;0.90;99.90
47857;DHT22;33618;49.972;8.242;2023-04-06T04:58:00;0.90;99.90
47857;DHT22;33618;49.972;8.242;2023-04-06T05:00:28;1.00;99.90
47857;DHT22;33618;49.972;8.242;2023-04-06T05:02:55;1.00;99.90
47857;DHT22;33618;49.972;8.242;2023-04-06T05:05:22;1.10;99.90
47857;DHT22;33618;49.972;8.242;2023-04-06T05:07:49;1.10;99.90
47857;DHT22;33618;49.972;8.242;2023-04-06T05:10:16;1.10;99.90
47857;DHT22;33618;49.972;8.242;2023-04-06T05:12:43;1.10;99.90
47857;DHT22;33618;49.972;8.242;2023-04-06T05:15:10;1.20;99.90
47857;DHT22;33618;49.972;8.242;2023-04-06T05:17:37;1.10;99.90
47857;DHT22;33618;49.972;8.242;2023-04-06T05:20:05;1.20;99.90
47857;DHT22;33618;49.972;8.242;2023-04-06T05:22:32;1.20;99.90
47857;DHT22;33618;49.972;8.242;2023-04-06T05:25:01;1.10;99.90
47857;DHT22;33618;49.972;8.242;2023-04-06T05:27:28;1.20;99.90
47857;DHT22;33618;49.972;8.242;2023-04-06T05:29:55;1.20;99.90
47857;DHT22;33618;49.972;8.242;2023-04-06T05:32:23;1.20;99.90
47857;DHT22;33618;49.972;8.242;2023-04-06T05:34:51;1.20;99.90
47857;DHT22;33618;49.972;8.242;2023-04-06T05:37:18;1.20;99.90
47857;DHT22;33618;49.972;8.242;2023-04-06T05:39:45;1.20;99.90
47857;DHT22;33618;49.972;8.242;2023-04-06T05:42:12;1.20;99.90
47857;DHT22;33618;49.972;8.242;2023-04-06T05:44:39;1.20;99.90
47857;DHT22;33618;49.972;8.242;2023-04-06T05:47:06;1.20;99.90
47857;DHT22;33618;49.972;8.242;2023-04-06T05:49:32;1.30;99.90
47857;DHT22;33618;49.972;8.242;2023-04-06T05:51:59;1.30;99.90
47857;DHT22;33618;49.972;8.242;2023-04-06T05:54:26;1.40;99.90
47857;DHT22;33618;49.972;8.242;2023-04-06T05:56:53;1.50;99.90
47857;DHT22;33618;49.972;8.242;2023-04-06T05:59:20;1.40;99.90
47857;DHT22;33618;49.972;8.242;2023-04-06T06:01:47;1.50;99.90
47857;DHT22;33618;49.972;8.242;2023-04-06T06:04:14;1.60;99.90
47857;DHT22;33618;49.972;8.242;2023-04-06T06:06:41;1.60;99.90
47857;DHT22;33618;49.972;8.242;2023-04-06T06:09:07;1.70;99.90
47857;DHT22;33618;49.972;8.242;2023-04-06T06:11:35;1.70;99.90
47857;DHT22;33618;49.972;8.242;2023-04-06T06:14:01;1.70;99.90
47857;DHT22;33618;49.972;8.242;2023-04-06T06:16:28;1.80;99.90
47857;DHT22;33618;49.972;8.242;2023-04-06T06:18:55;1.90;99.90
47857;DHT22;33618;49.972;8.242;2023-04-06T06:21:22;1.90;99.90
47857;DHT22;33618;49.972;8.242;2023-04-06T06:23:49;2.00;99.90
47857;DHT22;33618;49.972;8.242;2023-04-06T06:26:16;2.00;99.90
47857;DHT22;33618;49.972;8.242;2023-04-06T06:28:43;2.10;99.90
47857;DHT22;33618;49.972;8.242;2023-04-06T06:31:10;2.10;99.90
47857;DHT22;33618;49.972;8.242;2023-04-06T06:33:37;2.20;99.90
47857;DHT22;33618;49.972;8.242;2023-04-06T06:36:04;2.30;99.90
47857;DHT22;33618;49.972;8.242;2023-04-06T06:38:31;2.30;99.90
47857;DHT22;33618;49.972;8.242;2023-04-06T06:40:58;2.40;99.90
47857;DHT22;33618;49.972;8.242;2023-04-06T06:43:25;2.50;99.90
47857;DHT22;33618;49.972;8.242;2023-04-06T06:45:52;2.50;99.90
47857;DHT22;33618;49.972;8.242;2023-04-06T06:48:19;2.60;99.90
47857;DHT22;33618;49.972;8.242;2023-04-06T06:50:47;2.70;99.90
47857;DHT22;33618;49.972;8.242;2023-04-06T06:53:15;2.70;99.90
47857;DHT22;33618;49.972;8.242;2023-04-06T06:55:42;2.80;99.90
47857;DHT22;33618;49.972;8.242;2023-04-06T06:58:10;2.80;99.90
47857;DHT22;33618;49.972;8.242;2023-04-06T07:00:37;2.90;99.90
47857;DHT22;33618;49.972;8.242;2023-04-06T07:03:05;2.90;99.90
47857;DHT22;33618;49.972;8.242;2023-04-06T07:05:32;3.00;99.90
47857;DHT22;33618;49.972;8.242;2023-04-06T07:07:59;3.00;99.90
47857;DHT22;33618;49.972;8.242;2023-04-06T07:10:26;3.10;99.90
47857;DHT22;33618;49.972;8.242;2023-04-06T07:12:54;3.20;99.60
47857;DHT22;33618;49.972;8.242;2023-04-06T07:15:21;3.30;99.00
47857;DHT22;33618;49.972;8.242;2023-04-06T07:17:48;3.40;99.10
47857;DHT22;33618;49.972;8.242;2023-04-06T07:20:15;3.40;98.40
47857;DHT22;33618;49.972;8.242;2023-04-06T07:22:43;3.50;97.70
47857;DHT22;33618;49.972;8.242;2023-04-06T07:25:13;3.60;97.30
47857;DHT22;33618;49.972;8.242;2023-04-06T07:27:40;3.60;97.10
47857;DHT22;33618;49.972;8.242;2023-04-06T07:30:07;3.70;97.20
47857;DHT22;33618;49.972;8.242;2023-04-06T07:32:34;3.80;96.40
47857;DHT22;33618;49.972;8.242;2023-04-06T07:35:03;3.90;95.30
47857;DHT22;33618;49.972;8.242;2023-04-06T07:37:30;4.00;95.00
47857;DHT22;33618;49.972;8.242;2023-04-06T07:39:57;4.00;95.00
47857;DHT22;33618;49.972;8.242;2023-04-06T07:42:24;4.10;95.50
47857;DHT22;33618;49.972;8.242;2023-04-06T07:44:51;4.10;95.00
47857;DHT22;33618;49.972;8.242;2023-04-06T07:47:18;4.20;94.60
47857;DHT22;33618;49.972;8.242;2023-04-06T07:49:45;4.40;94.30
47857;DHT22;33618;49.972;8.242;2023-04-06T07:52:12;4.50;92.80
47857;DHT22;33618;49.972;8.242;2023-04-06T07:54:40;4.60;92.30
47857;DHT22;33618;49.972;8.242;2023-04-06T07:57:07;4.70;92.30
47857;DHT22;33618;49.972;8.242;2023-04-06T07:59:34;4.80;92.20
47857;DHT22;33618;49.972;8.242;2023-04-06T08:02:01;4.80;91.60
47857;DHT22;33618;49.972;8.242;2023-04-06T08:04:29;4.80;91.80
47857;DHT22;33618;49.972;8.242;2023-04-06T08:06:56;4.90;91.60
47857;DHT22;33618;49.972;8.242;2023-04-06T08:09:23;5.00;91.40
47857;DHT22;33618;49.972;8.242;2023-04-06T08:11:50;5.10;91.00
47857;DHT22;33618;49.972;8.242;2023-04-06T08:14:17;5.20;90.50
47857;DHT22;33618;49.972;8.242;2023-04-06T08:16:43;5.30;89.50
47857;DHT22;33618;49.972;8.242;2023-04-06T08:19:10;5.40;87.20
47857;DHT22;33618;49.972;8.242;2023-04-06T08:21:37;5.50;85.80
47857;DHT22;33618;49.972;8.242;2023-04-06T08:24:06;5.60;86.50
47857;DHT22;33618;49.972;8.242;2023-04-06T08:26:33;5.60;86.90
47857;DHT22;33618;49.972;8.242;2023-04-06T08:29:00;5.70;87.10
47857;DHT22;33618;49.972;8.242;2023-04-06T08:31:27;5.80;86.20
47857;DHT22;33618;49.972;8.242;2023-04-06T08:33:54;5.90;85.50
47857;DHT22;33618;49.972;8.242;2023-04-06T08:36:22;6.00;85.70
47857;DHT22;33618;49.972;8.242;2023-04-06T08:38:50;6.10;88.00
47857;DHT22;33618;49.972;8.242;2023-04-06T08:41:17;6.20;87.70
47857;DHT22;33618;49.972;8.242;2023-04-06T08:43:53;6.40;88.90
47857;DHT22;33618;49.972;8.242;2023-04-06T08:46:23;6.80;89.30
47857;DHT22;33618;49.972;8.242;2023-04-06T08:49:01;7.10;88.20
47857;DHT22;33618;49.972;8.242;2023-04-06T08:51:29;7.80;86.10
47857;DHT22;33618;49.972;8.242;2023-04-06T08:53:58;8.30;84.70
47857;DHT22;33618;49.972;8.242;2023-04-06T08:56:26;9.10;82.00
47857;DHT22;33618;49.972;8.242;2023-04-06T08:58:55;10.20;80.80
47857;DHT22;33618;49.972;8.242;2023-04-06T09:01:27;11.20;77.50
47857;DHT22;33618;49.972;8.242;2023-04-06T09:03:59;11.90;74.90
47857;DHT22;33618;49.972;8.242;2023-04-06T09:06:32;12.30;71.40
47857;DHT22;33618;49.972;8.242;2023-04-06T09:08:59;12.70;70.60
47857;DHT22;33618;49.972;8.242;2023-04-06T09:11:25;12.70;70.20
47857;DHT22;33618;49.972;8.242;2023-04-06T09:13:54;12.70;68.50
47857;DHT22;33618;49.972;8.242;2023-04-06T09:16:22;13.40;69.30
47857;DHT22;33618;49.972;8.242;2023-04-06T09:19:04;14.00;67.60
47857;DHT22;33618;49.972;8.242;2023-04-06T09:21:32;13.50;67.20
47857;DHT22;33618;49.972;8.242;2023-04-06T09:24:03;14.10;67.90
47857;DHT22;33618;49.972;8.242;2023-04-06T09:26:30;14.30;67.30
47857;DHT22;33618;49.972;8.242;2023-04-06T09:29:00;14.50;66.80
47857;DHT22;33618;49.972;8.242;2023-04-06T09:31:30;14.70;65.90
47857;DHT22;33618;49.972;8.242;2023-04-06T09:34:00;14.50;65.30
47857;DHT22;33618;49.972;8.242;2023-04-06T09:36:31;13.70;66.20
47857;DHT22;33618;49.972;8.242;2023-04-06T09:39:03;14.20;65.60
47857;DHT22;33618;49.972;8.242;2023-04-06T09:41:34;15.10;65.60
47857;DHT22;33618;49.972;8.242;2023-04-06T09:44:06;15.90;64.00
47857;DHT22;33618;49.972;8.242;2023-04-06T09:46:41;16.20;63.70
47857;DHT22;33618;49.972;8.242;2023-04-06T09:49:30;16.40;62.80
47857;DHT22;33618;49.972;8.242;2023-04-06T09:52:00;16.60;62.80
47857;DHT22;33618;49.972;8.242;2023-04-06T09:54:31;16.80;61.80
47857;DHT22;33618;49.972;8.242;2023-04-06T09:57:08;15.80;63.10
47857;DHT22;33618;49.972;8.242;2023-04-06T10:02:32;16.40;63.10
47857;DHT22;33618;49.972;8.242;2023-04-06T10:05:17;16.40;62.30
47857;DHT22;33618;49.972;8.242;2023-04-06T10:07:48;16.30;61.60
47857;DHT22;33618;49.972;8.242;2023-04-06T10:10:28;15.80;61.40
47857;DHT22;33618;49.972;8.242;2023-04-06T10:12:56;15.90;62.50
47857;DHT22;33618;49.972;8.242;2023-04-06T10:15:23;16.10;62.60
47857;DHT22;33618;49.972;8.242;2023-04-06T10:17:51;16.60;61.80
47857;DHT22;33618;49.972;8.242;2023-04-06T10:20:28;17.20;61.30
47857;DHT22;33618;49.972;8.242;2023-04-06T10:25:28;17.00;60.00
47857;DHT22;33618;49.972;8.242;2023-04-06T10:28:08;16.40;59.40
47857;DHT22;33618;49.972;8.242;2023-04-06T10:30:42;16.10;61.10
47857;DHT22;33618;49.972;8.242;2023-04-06T10:33:13;15.80;60.80
47857;DHT22;33618;49.972;8.242;2023-04-06T10:35:41;15.90;61.70
47857;DHT22;33618;49.972;8.242;2023-04-06T10:38:08;16.20;60.90
47857;DHT22;33618;49.972;8.242;2023-04-06T10:40:37;16.30;61.00
47857;DHT22;33618;49.972;8.242;2023-04-06T10:45:36;16.30;61.30
47857;DHT22;33618;49.972;8.242;2023-04-06T10:48:19;16.20;61.00
47857;DHT22;33618;49.972;8.242;2023-04-06T10:50:48;15.90;60.30
47857;DHT22;33618;49.972;8.242;2023-04-06T10:53:26;15.90;60.50
47857;DHT22;33618;49.972;8.242;2023-04-06T10:55:56;15.80;60.00
47857;DHT22;33618;49.972;8.242;2023-04-06T10:58:27;15.40;60.10
47857;DHT22;33618;49.972;8.242;2023-04-06T11:00:54;15.30;61.40
47857;DHT22;33618;49.972;8.242;2023-04-06T11:03:22;15.20;61.90
47857;DHT22;33618;49.972;8.242;2023-04-06T11:05:50;15.40;61.20
47857;DHT22;33618;49.972;8.242;2023-04-06T11:11:10;15.70;60.50
47857;DHT22;33618;49.972;8.242;2023-04-06T11:16:20;15.20;61.10
47857;DHT22;33618;49.972;8.242;2023-04-06T11:18:59;15.30;60.60
47857;DHT22;33618;49.972;8.242;2023-04-06T11:21:34;15.20;60.70
47857;DHT22;33618;49.972;8.242;2023-04-06T11:26:40;15.40;60.90
47857;DHT22;33618;49.972;8.242;2023-04-06T11:29:08;15.20;60.30
47857;DHT22;33618;49.972;8.242;2023-04-06T11:31:46;15.40;60.60
47857;DHT22;33618;49.972;8.242;2023-04-06T11:34:17;15.20;60.90
47857;DHT22;33618;49.972;8.242;2023-04-06T11:36:45;15.20;60.30
47857;DHT22;33618;49.972;8.242;2023-04-06T11:39:17;15.20;59.90
47857;DHT22;33618;49.972;8.242;2023-04-06T11:41:49;15.20;60.90
47857;DHT22;33618;49.972;8.242;2023-04-06T11:44:28;15.40;60.30
47857;DHT22;33618;49.972;8.242;2023-04-06T11:46:57;15.30;59.30
47857;DHT22;33618;49.972;8.242;2023-04-06T11:49:32;14.90;59.60
47857;DHT22;33618;49.972;8.242;2023-04-06T11:51:59;15.10;59.40
47857;DHT22;33618;49.972;8.242;2023-04-06T11:56:57;15.80;59.70
47857;DHT22;33618;49.972;8.242;2023-04-06T11:59:24;15.60;58.70
47857;DHT22;33618;49.972;8.242;2023-04-06T12:01:51;15.90;58.60
47857;DHT22;33618;49.972;8.242;2023-04-06T12:04:20;15.60;58.60
47857;DHT22;33618;49.972;8.242;2023-04-06T12:06:48;15.90;59.10
47857;DHT22;33618;49.972;8.242;2023-04-06T12:09:16;16.10;58.10
47857;DHT22;33618;49.972;8.242;2023-04-06T12:11:46;16.30;59.00
47857;DHT22;33618;49.972;8.242;2023-04-06T12:14:14;16.70;57.60
47857;DHT22;33618;49.972;8.242;2023-04-06T12:16:41;17.00;57.80
47857;DHT22;33618;49.972;8.242;2023-04-06T12:19:08;17.20;56.90
47857;DHT22;33618;49.972;8.242;2023-04-06T12:21:35;17.10;58.00
47857;DHT22;33618;49.972;8.242;2023-04-06T12:24:05;17.50;56.80
47857;DHT22;33618;49.972;8.242;2023-04-06T12:26:33;17.40;56.20
47857;DHT22;33618;49.972;8.242;2023-04-06T12:29:00;17.40;55.80
47857;DHT22;33618;49.972;8.242;2023-04-06T12:31:35;17.10;55.30
47857;DHT22;33618;49.972;8.242;2023-04-06T12:34:03;16.80;56.50
47857;DHT22;33618;49.972;8.242;2023-04-06T12:36:30;16.80;56.30
47857;DHT22;33618;49.972;8.242;2023-04-06T12:38:58;17.10;55.80
47857;DHT22;33618;49.972;8.242;2023-04-06T12:41:28;16.70;55.20
47857;DHT22;33618;49.972;8.242;2023-04-06T12:43:55;17.10;56.90
47857;DHT22;33618;49.972;8.242;2023-04-06T12:46:23;17.30;56.30
47857;DHT22;33618;49.972;8.242;2023-04-06T12:48:51;17.20;55.00
47857;DHT22;33618;49.972;8.242;2023-04-06T12:51:20;17.00;55.50
47857;DHT22;33618;49.972;8.242;2023-04-06T12:53:47;17.00;55.10
47857;DHT22;33618;49.972;8.242;2023-04-06T12:56:16;17.10;55.50
47857;DHT22;33618;49.972;8.242;2023-04-06T12:58:44;17.00;55.40
47857;DHT22;33618;49.972;8.242;2023-04-06T13:01:12;17.00;55.30
47857;DHT22;33618;49.972;8.242;2023-04-06T13:03:41;16.60;55.00
47857;DHT22;33618;49.972;8.242;2023-04-06T13:06:08;16.80;55.10
47857;DHT22;33618;49.972;8.242;2023-04-06T13:08:35;16.70;54.70
47857;DHT22;33618;49.972;8.242;2023-04-06T13:11:04;16.70;55.20
47857;DHT22;33618;49.972;8.242;2023-04-06T13:13:31;16.60;55.20
47857;DHT22;33618;49.972;8.242;2023-04-06T13:16:03;16.30;55.90
47857;DHT22;33618;49.972;8.242;2023-04-06T13:18:30;16.10;55.00
47857;DHT22;33618;49.972;8.242;2023-04-06T13:20:58;15.90;55.30
47857;DHT22;33618;49.972;8.242;2023-04-06T13:23:28;15.90;54.50
47857;DHT22;33618;49.972;8.242;2023-04-06T13:26:03;15.60;55.20
47857;DHT22;33618;49.972;8.242;2023-04-06T13:28:31;15.80;55.50
47857;DHT22;33618;49.972;8.242;2023-04-06T13:30:59;15.30;55.60
47857;DHT22;33618;49.972;8.242;2023-04-06T13:33:30;15.20;56.20
47857;DHT22;33618;49.972;8.242;2023-04-06T13:35:58;15.20;56.30
47857;DHT22;33618;49.972;8.242;2023-04-06T13:38:25;15.10;55.80
47857;DHT22;33618;49.972;8.242;2023-04-06T13:40:52;15.30;55.40
47857;DHT22;33618;49.972;8.242;2023-04-06T13:43:19;14.90;55.70
47857;DHT22;33618;49.972;8.242;2023-04-06T13:45:54;15.00;56.30
47857;DHT22;33618;49.972;8.242;2023-04-06T13:48:26;15.20;56.10
47857;DHT22;33618;49.972;8.242;2023-04-06T13:50:53;15.30;55.10
47857;DHT22;33618;49.972;8.242;2023-04-06T13:53:20;15.40;55.00
47857;DHT22;33618;49.972;8.242;2023-04-06T13:55:54;15.50;54.90
47857;DHT22;33618;49.972;8.242;2023-04-06T13:58:21;15.40;55.50
47857;DHT22;33618;49.972;8.242;2023-04-06T14:00:48;15.40;54.50
47857;DHT22;33618;49.972;8.242;2023-04-06T14:03:15;15.20;54.40
47857;DHT22;33618;49.972;8.242;2023-04-06T14:05:42;15.30;55.60
47857;DHT22;33618;49.972;8.242;2023-04-06T14:08:09;15.40;56.10
47857;DHT22;33618;49.972;8.242;2023-04-06T14:10:39;15.50;55.80
47857;DHT22;33618;49.972;8.242;2023-04-06T14:13:07;15.60;56.00
47857;DHT22;33618;49.972;8.242;2023-04-06T14:15:35;15.60;53.80
47857;DHT22;33618;49.972;8.242;2023-04-06T14:18:02;15.20;51.90
47857;DHT22;33618;49.972;8.242;2023-04-06T14:20:31;14.90;52.20
47857;DHT22;33618;49.972;8.242;2023-04-06T14:23:03;14.70;52.30
47857;DHT22;33618;49.972;8.242;2023-04-06T14:25:30;14.70;52.30
47857;DHT22;33618;49.972;8.242;2023-04-06T14:28:01;14.80;52.40
47857;DHT22;33618;49.972;8.242;2023-04-06T14:30:30;14.70;52.10
47857;DHT22;33618;49.972;8.242;2023-04-06T14:32:58;14.60;51.90
47857;DHT22;33618;49.972;8.242;2023-04-06T14:35:25;14.40;52.10
47857;DHT22;33618;49.972;8.242;2023-04-06T14:37:55;14.50;51.80
47857;DHT22;33618;49.972;8.242;2023-04-06T14:40:23;14.50;52.20
47857;DHT22;33618;49.972;8.242;2023-04-06T14:42:51;14.70;52.60
47857;DHT22;33618;49.972;8.242;2023-04-06T14:45:19;14.80;52.70
47857;DHT22;33618;49.972;8.242;2023-04-06T14:47:48;14.80;53.10
47857;DHT22;33618;49.972;8.242;2023-04-06T14:50:15;14.90;52.80
47857;DHT22;33618;49.972;8.242;2023-04-06T14:52:41;14.70;52.20
47857;DHT22;33618;49.972;8.242;2023-04-06T14:55:08;14.60;53.50
47857;DHT22;33618;49.972;8.242;2023-04-06T14:57:36;14.50;55.20
47857;DHT22;33618;49.972;8.242;2023-04-06T15:00:03;14.40;55.10
47857;DHT22;33618;49.972;8.242;2023-04-06T15:02:32;14.20;56.40
47857;DHT22;33618;49.972;8.242;2023-04-06T15:04:59;14.10;55.90
47857;DHT22;33618;49.972;8.242;2023-04-06T15:07:27;13.90;55.80
47857;DHT22;33618;49.972;8.242;2023-04-06T15:09:53;14.10;54.90
47857;DHT22;33618;49.972;8.242;2023-04-06T15:12:20;14.00;55.20
47857;DHT22;33618;49.972;8.242;2023-04-06T15:14:47;14.10;55.60
47857;DHT22;33618;49.972;8.242;2023-04-06T15:17:14;13.90;56.30
47857;DHT22;33618;49.972;8.242;2023-04-06T15:19:41;13.90;56.50
47857;DHT22;33618;49.972;8.242;2023-04-06T15:22:07;13.90;56.20
47857;DHT22;33618;49.972;8.242;2023-04-06T15:24:34;13.70;56.50
47857;DHT22;33618;49.972;8.242;2023-04-06T15:27:01;13.50;57.00
47857;DHT22;33618;49.972;8.242;2023-04-06T15:29:30;13.50;57.00
47857;DHT22;33618;49.972;8.242;2023-04-06T15:31:57;13.40;57.20
47857;DHT22;33618;49.972;8.242;2023-04-06T15:34:25;13.40;57.40
47857;DHT22;33618;49.972;8.242;2023-04-06T15:36:52;13.30;58.10
47857;DHT22;33618;49.972;8.242;2023-04-06T15:39:19;13.20;56.50
47857;DHT22;33618;49.972;8.242;2023-04-06T15:41:46;13.20;56.50
47857;DHT22;33618;49.972;8.242;2023-04-06T15:44:13;13.20;56.50
47857;DHT22;33618;49.972;8.242;2023-04-06T15:46:39;13.10;56.50
47857;DHT22;33618;49.972;8.242;2023-04-06T15:49:07;13.00;57.10
47857;DHT22;33618;49.972;8.242;2023-04-06T15:51:36;13.00;57.40
47857;DHT22;33618;49.972;8.242;2023-04-06T15:54:03;13.00;56.90
47857;DHT22;33618;49.972;8.242;2023-04-06T15:56:31;12.90;57.50
47857;DHT22;33618;49.972;8.242;2023-04-06T15:58:58;12.90;58.40
47857;DHT22;33618;49.972;8.242;2023-04-06T16:01:25;12.80;58.60
47857;DHT22;33618;49.972;8.242;2023-04-06T16:03:52;12.70;58.10
47857;DHT22;33618;49.972;8.242;2023-04-06T16:06:19;12.80;58.50
47857;DHT22;33618;49.972;8.242;2023-04-06T16:08:46;12.80;58.60
47857;DHT22;33618;49.972;8.242;2023-04-06T16:11:13;12.70;59.20
47857;DHT22;33618;49.972;8.242;2023-04-06T16:13:40;12.60;60.00
47857;DHT22;33618;49.972;8.242;2023-04-06T16:16:12;12.40;61.80
47857;DHT22;33618;49.972;8.242;2023-04-06T16:18:39;12.30;62.00
47857;DHT22;33618;49.972;8.242;2023-04-06T16:21:06;12.20;61.90
47857;DHT22;33618;49.972;8.242;2023-04-06T16:23:33;12.20;62.40
47857;DHT22;33618;49.972;8.242;2023-04-06T16:26:00;12.20;61.90
47857;DHT22;33618;49.972;8.242;2023-04-06T16:28:27;12.20;61.80
47857;DHT22;33618;49.972;8.242;2023-04-06T16:30:54;12.20;62.10
47857;DHT22;33618;49.972;8.242;2023-04-06T16:33:21;12.20;61.80
47857;DHT22;33618;49.972;8.242;2023-04-06T16:35:49;12.20;62.10
47857;DHT22;33618;49.972;8.242;2023-04-06T16:38:17;12.20;62.70
47857;DHT22;33618;49.972;8.242;2023-04-06T16:40:44;12.20;63.00
47857;DHT22;33618;49.972;8.242;2023-04-06T16:43:12;12.10;63.60
47857;DHT22;33618;49.972;8.242;2023-04-06T16:45:39;12.00;64.00